createdAt,value
2018-05-11T00:00:55.221Z,101635.84
2018-05-11T00:03:22.952Z,101636.27
2018-05-11T00:05:50.642Z,101635.38
2018-05-11T00:08:18.381Z,101639.59
2018-05-11T00:10:46.197Z,101641.86
2018-05-11T00:13:13.873Z,101641.13
2018-05-11T00:15:41.565Z,101650.14
2018-05-11T00:18:09.205Z,101653.27
2018-05-11T00:20:36.856Z,101651.61
2018-05-11T00:23:04.534Z,101641.81
2018-05-11T00:25:32.174Z,101644.47
2018-05-11T00:27:59.817Z,101647.97
2018-05-11T00:30:27.584Z,101639.69
2018-05-11T00:32:55.232Z,101643.08
2018-05-11T00:35:22.886Z,101638.04
2018-05-11T00:37:50.562Z,101639.24
2018-05-11T00:40:18.185Z,101640.23
2018-05-11T00:42:45.886Z,101648.50
2018-05-11T00:45:13.545Z,101650.52
2018-05-11T00:47:41.193Z,101650.96
2018-05-11T00:50:08.952Z,101652.56
2018-05-11T00:52:36.647Z,101648.13
2018-05-11T00:55:15.929Z,101648.06
2018-05-11T00:57:43.613Z,101645.28
2018-05-11T01:00:11.291Z,101645.84
2018-05-11T01:02:39.029Z,101647.45
2018-05-11T01:05:06.753Z,101648.21
2018-05-11T01:07:34.388Z,101645.11
2018-05-11T01:10:02.195Z,101649.35
2018-05-11T01:12:29.828Z,101652.52
2018-05-11T01:14:57.585Z,101651.22
2018-05-11T01:17:25.258Z,101652.38
2018-05-11T01:19:52.900Z,101653.68
2018-05-11T01:22:20.506Z,101651.72
2018-05-11T01:24:48.167Z,101656.28
2018-05-11T01:27:15.797Z,101648.70
2018-05-11T01:29:43.420Z,101649.68
2018-05-11T01:32:11.074Z,101658.79
2018-05-11T01:34:38.700Z,101649.45
2018-05-11T01:37:06.513Z,101655.31
2018-05-11T01:39:34.224Z,101655.78
2018-05-11T01:42:01.890Z,101654.98
2018-05-11T01:44:29.492Z,101660.64
2018-05-11T01:46:57.148Z,101658.39
2018-05-11T01:49:24.762Z,101650.81
2018-05-11T01:51:52.438Z,101650.28
2018-05-11T01:54:20.146Z,101657.76
2018-05-11T01:56:47.869Z,101654.66
2018-05-11T01:59:15.683Z,101661.75
2018-05-11T02:01:43.385Z,101668.80
2018-05-11T02:04:10.994Z,101657.07
2018-05-11T02:06:38.906Z,101668.22
2018-05-11T02:09:06.549Z,101666.17
2018-05-11T02:11:34.316Z,101663.02
2018-05-11T02:14:01.954Z,101663.61
2018-05-11T02:16:29.677Z,101653.08
2018-05-11T02:18:57.360Z,101648.93
2018-05-11T02:21:25.156Z,101653.61
2018-05-11T02:23:52.841Z,101650.43
2018-05-11T02:26:20.535Z,101651.88
2018-05-11T02:28:48.233Z,101646.91
2018-05-11T02:31:15.903Z,101648.00
2018-05-11T02:33:43.594Z,101646.61
2018-05-11T02:36:11.294Z,101645.67
2018-05-11T02:38:39.010Z,101648.71
2018-05-11T02:41:06.673Z,101646.22
2018-05-11T02:43:34.418Z,101642.19
2018-05-11T02:46:02.029Z,101646.55
2018-05-11T02:48:29.793Z,101640.00
2018-05-11T02:50:57.401Z,101646.44
2018-05-11T02:53:25.109Z,101641.72
2018-05-11T02:55:52.741Z,101646.97
2018-05-11T02:58:20.397Z,101639.39
2018-05-11T03:00:48.048Z,101640.34
2018-05-11T03:03:15.717Z,101631.95
2018-05-11T03:05:43.326Z,101632.13
2018-05-11T03:08:10.948Z,101630.53
2018-05-11T03:10:38.581Z,101633.96
2018-05-11T03:13:06.208Z,101634.02
2018-05-11T03:15:33.856Z,101629.86
2018-05-11T03:18:01.460Z,101631.84
2018-05-11T03:20:29.120Z,101635.55
2018-05-11T03:22:56.858Z,101633.19
2018-05-11T03:25:24.531Z,101636.38
2018-05-11T03:27:52.329Z,101640.22
2018-05-11T03:30:19.988Z,101645.91
2018-05-11T03:32:47.591Z,101651.74
2018-05-11T03:35:15.370Z,101649.69
2018-05-11T03:37:43.038Z,101654.00
2018-05-11T03:40:10.673Z,101660.69
2018-05-11T03:42:38.326Z,101655.42
2018-05-11T03:45:05.966Z,101655.67
2018-05-11T03:47:33.720Z,101657.23
2018-05-11T03:50:01.357Z,101659.66
2018-05-11T03:52:29.021Z,101664.52
2018-05-11T03:54:56.704Z,101665.15
2018-05-11T03:57:24.373Z,101660.64
2018-05-11T03:59:52.100Z,101668.22
2018-05-11T04:02:31.222Z,101669.62
2018-05-11T04:05:10.478Z,101665.90
2018-05-11T04:07:49.748Z,101676.16
2018-05-11T04:10:17.535Z,101669.27
2018-05-11T04:12:45.419Z,101675.73
2018-05-11T04:15:15.087Z,101671.16
2018-05-11T04:17:42.845Z,101672.59
2018-05-11T04:20:10.505Z,101678.97
2018-05-11T04:22:38.218Z,101680.57
2018-05-11T04:25:05.824Z,101682.22
2018-05-11T04:27:33.594Z,101679.44
2018-05-11T04:30:01.318Z,101674.93
2018-05-11T04:32:29.067Z,101680.77
2018-05-11T04:34:56.718Z,101680.77
2018-05-11T04:37:24.424Z,101678.47
2018-05-11T04:39:52.080Z,101681.02
2018-05-11T04:42:19.841Z,101676.63
2018-05-11T04:44:47.480Z,101683.12
2018-05-11T04:47:15.309Z,101679.06
2018-05-11T04:49:43.047Z,101684.84
2018-05-11T04:52:10.679Z,101688.89
2018-05-11T04:54:38.360Z,101686.08
2018-05-11T04:57:06.056Z,101683.94
2018-05-11T04:59:33.710Z,101686.60
2018-05-11T05:02:01.339Z,101684.06
2018-05-11T05:04:29.044Z,101690.41
2018-05-11T05:06:56.772Z,101692.45
2018-05-11T05:09:24.526Z,101693.16
2018-05-11T05:11:52.153Z,101692.98
2018-05-11T05:14:19.847Z,101693.73
2018-05-11T05:16:47.496Z,101692.44
2018-05-11T05:19:15.202Z,101698.39
2018-05-11T05:21:42.824Z,101687.75
2018-05-11T05:24:10.436Z,101689.11
2018-05-11T05:26:38.112Z,101697.61
2018-05-11T05:29:05.756Z,101690.13
2018-05-11T05:31:33.407Z,101684.66
2018-05-11T05:34:01.013Z,101700.38
2018-05-11T05:36:28.680Z,101701.31
2018-05-11T05:38:56.281Z,101695.31
2018-05-11T05:41:23.959Z,101685.70
2018-05-11T05:43:51.671Z,101694.97
2018-05-11T05:46:19.318Z,101684.08
2018-05-11T05:48:46.950Z,101690.63
2018-05-11T05:51:14.598Z,101694.95
2018-05-11T05:53:42.225Z,101686.88
2018-05-11T05:56:10.200Z,101690.69
2018-05-11T05:58:37.882Z,101682.38
2018-05-11T06:01:05.666Z,101684.37
2018-05-11T06:03:33.351Z,101691.58
2018-05-11T06:06:01.123Z,101699.22
2018-05-11T06:08:28.806Z,101693.97
2018-05-11T06:10:56.673Z,101691.42
2018-05-11T06:13:24.221Z,101690.34
2018-05-11T06:15:51.841Z,101693.80
2018-05-11T06:18:19.557Z,101690.23
2018-05-11T06:20:47.482Z,101689.53
2018-05-11T06:23:15.477Z,101686.81
2018-05-11T06:25:43.412Z,101685.16
2018-05-11T06:28:11.129Z,101688.80
2018-05-11T06:30:38.864Z,101692.20
2018-05-11T06:33:07.453Z,101687.75
2018-05-11T06:35:35.165Z,101681.94
2018-05-11T06:38:03.235Z,101686.80
2018-05-11T06:40:30.918Z,101683.47
2018-05-11T06:42:58.900Z,101686.85
2018-05-11T06:45:26.713Z,101681.07
2018-05-11T06:47:54.360Z,101681.90
2018-05-11T06:50:22.098Z,101678.49
2018-05-11T06:52:49.821Z,101674.06
2018-05-11T06:55:17.539Z,101676.64
2018-05-11T06:57:45.262Z,101675.56
2018-05-11T07:00:12.957Z,101675.21
2018-05-11T07:02:40.819Z,101673.33
2018-05-11T07:05:08.542Z,101669.20
2018-05-11T07:07:36.334Z,101675.59
2018-05-11T07:10:04.541Z,101671.06
2018-05-11T07:12:32.152Z,101664.45
2018-05-11T07:15:00.094Z,101661.98
2018-05-11T07:17:28.046Z,101659.63
2018-05-11T07:19:55.800Z,101662.01
2018-05-11T07:22:23.437Z,101659.97
2018-05-11T07:24:51.971Z,101659.12
2018-05-11T07:27:20.384Z,101663.52
2018-05-11T07:29:48.460Z,101651.05
2018-05-11T07:32:18.290Z,101648.23
2018-05-11T07:34:45.937Z,101655.83
2018-05-11T07:37:13.650Z,101653.26
2018-05-11T07:39:41.297Z,101648.91
2018-05-11T07:42:08.964Z,101649.96
2018-05-11T07:44:36.789Z,101645.57
2018-05-11T07:47:04.427Z,101644.45
2018-05-11T07:49:32.039Z,101637.42
2018-05-11T07:51:59.689Z,101645.64
2018-05-11T07:54:27.317Z,101644.41
2018-05-11T07:56:54.960Z,101638.83
2018-05-11T07:59:23.080Z,101636.72
2018-05-11T08:01:50.741Z,101638.34
2018-05-11T08:04:18.369Z,101635.00
2018-05-11T08:06:46.021Z,101632.66
2018-05-11T08:09:13.664Z,101629.48
2018-05-11T08:11:41.318Z,101625.46
2018-05-11T08:14:08.985Z,101624.75
2018-05-11T08:16:37.081Z,101625.59
2018-05-11T08:19:04.703Z,101622.94
2018-05-11T08:21:32.333Z,101621.98
2018-05-11T08:23:59.984Z,101615.50
2018-05-11T08:26:27.821Z,101609.72
2018-05-11T08:28:55.440Z,101618.02
2018-05-11T08:31:23.104Z,101612.54
2018-05-11T08:33:50.774Z,101618.77
2018-05-11T08:36:18.517Z,101613.36
2018-05-11T08:38:46.173Z,101610.30
2018-05-11T08:41:13.872Z,101612.81
2018-05-11T08:43:41.555Z,101606.23
2018-05-11T08:46:09.273Z,101608.08
2018-05-11T08:48:36.990Z,101594.36
2018-05-11T08:51:04.697Z,101598.69
2018-05-11T08:53:32.352Z,101590.56
2018-05-11T08:56:00.000Z,101586.66
2018-05-11T08:58:27.674Z,101587.11
2018-05-11T09:00:55.332Z,101587.45
2018-05-11T09:03:23.117Z,101581.39
2018-05-11T09:05:50.783Z,101588.86
2018-05-11T09:08:18.485Z,101585.05
2018-05-11T09:10:46.085Z,101580.24
2018-05-11T09:13:13.740Z,101582.25
2018-05-11T09:15:41.349Z,101570.11
2018-05-11T09:18:09.069Z,101572.53
2018-05-11T09:20:36.719Z,101571.12
2018-05-11T09:23:04.393Z,101570.52
2018-05-11T09:25:32.045Z,101566.97
2018-05-11T09:27:59.812Z,101558.48
2018-05-11T09:30:27.441Z,101548.29
2018-05-11T09:32:55.217Z,101552.00
2018-05-11T09:35:22.874Z,101555.33
2018-05-11T09:37:50.538Z,101536.59
2018-05-11T09:40:18.216Z,101540.30
2018-05-11T09:42:45.864Z,101539.05
2018-05-11T09:45:13.667Z,101532.77
2018-05-11T09:47:41.297Z,101536.98
2018-05-11T09:50:08.982Z,101538.66
2018-05-11T09:52:36.677Z,101541.20
2018-05-11T09:55:04.577Z,101536.52
2018-05-11T09:57:32.173Z,101539.52
2018-05-11T09:59:59.862Z,101535.59
2018-05-11T10:02:27.473Z,101532.55
2018-05-11T10:04:55.137Z,101525.61
2018-05-11T10:07:22.801Z,101537.17
2018-05-11T10:09:50.505Z,101532.06
2018-05-11T10:12:18.160Z,101524.28
2018-05-11T10:14:45.817Z,101522.02
2018-05-11T10:17:13.416Z,101515.76
2018-05-11T10:19:41.085Z,101521.98
2018-05-11T10:22:08.692Z,101510.78
2018-05-11T10:24:36.325Z,101505.95
2018-05-11T10:27:04.107Z,101506.28
2018-05-11T10:29:31.727Z,101497.48
2018-05-11T10:31:59.375Z,101503.63
2018-05-11T10:34:27.089Z,101499.05
2018-05-11T10:36:54.669Z,101493.45
2018-05-11T10:39:22.977Z,101490.83
2018-05-11T10:41:51.068Z,101488.69
2018-05-11T10:44:19.824Z,101479.73
2018-05-11T10:46:47.512Z,101479.79
2018-05-11T10:49:19.256Z,101467.30
2018-05-11T10:51:46.968Z,101474.13
2018-05-11T10:54:14.572Z,101472.95
2018-05-11T10:56:42.217Z,101466.88
2018-05-11T10:59:09.921Z,101464.39
2018-05-11T11:01:37.620Z,101458.66
2018-05-11T11:04:05.238Z,101458.28
2018-05-11T11:06:32.908Z,101445.73
2018-05-11T11:09:00.536Z,101448.92
2018-05-11T11:11:28.253Z,101445.02
2018-05-11T11:13:56.481Z,101446.53
2018-05-11T11:16:24.125Z,101441.88
2018-05-11T11:18:51.752Z,101447.02
2018-05-11T11:21:19.375Z,101440.44
2018-05-11T11:23:46.993Z,101432.88
2018-05-11T11:26:14.606Z,101433.81
2018-05-11T11:28:42.257Z,101420.72
2018-05-11T11:31:09.876Z,101420.41
2018-05-11T11:33:37.561Z,101418.45
2018-05-11T11:36:05.165Z,101415.80
2018-05-11T11:38:33.230Z,101413.17
2018-05-11T11:41:00.891Z,101413.40
2018-05-11T11:43:28.557Z,101404.86
2018-05-11T11:45:56.229Z,101396.03
2018-05-11T11:48:23.908Z,101394.41
2018-05-11T11:50:51.525Z,101389.23
2018-05-11T11:55:47.313Z,101373.36
2018-05-11T11:58:14.973Z,101368.05
2018-05-11T12:00:42.589Z,101371.09
2018-05-11T12:03:10.235Z,101368.05
2018-05-11T12:05:37.836Z,101360.91
2018-05-11T12:08:05.613Z,101361.42
2018-05-11T12:10:33.367Z,101358.75
2018-05-11T12:13:00.954Z,101348.16
2018-05-11T12:15:28.596Z,101351.25
2018-05-11T12:17:56.264Z,101345.11
2018-05-11T12:20:23.950Z,101345.09
2018-05-11T12:22:51.554Z,101342.66
2018-05-11T12:25:19.204Z,101345.22
2018-05-11T12:27:46.813Z,101344.92
2018-05-11T12:30:14.480Z,101342.00
2018-05-11T12:32:42.197Z,101343.80
2018-05-11T12:35:09.849Z,101342.87
2018-05-11T12:37:37.473Z,101340.28
2018-05-11T12:40:05.170Z,101335.22
2018-05-11T12:42:32.793Z,101324.02
2018-05-11T12:45:00.494Z,101327.40
2018-05-11T12:47:28.084Z,101323.15
2018-05-11T12:49:55.735Z,101335.06
2018-05-11T12:52:23.359Z,101328.80
2018-05-11T12:54:51.012Z,101333.59
2018-05-11T12:57:18.717Z,101320.38
2018-05-11T12:59:46.240Z,101320.00
2018-05-11T13:02:13.898Z,101321.77
2018-05-11T13:04:41.513Z,101315.17
2018-05-11T13:07:09.259Z,101312.97
2018-05-11T13:09:36.945Z,101309.92
2018-05-11T13:12:04.591Z,101311.06
2018-05-11T13:14:32.197Z,101298.85
2018-05-11T13:16:59.984Z,101298.91
2018-05-11T13:19:27.580Z,101289.14
2018-05-11T13:21:55.311Z,101294.35
2018-05-11T13:24:22.982Z,101293.05
2018-05-11T13:26:50.649Z,101291.59
2018-05-11T13:29:18.262Z,101286.46
2018-05-11T13:31:46.206Z,101286.92
2018-05-11T13:34:13.892Z,101281.55
2018-05-11T13:36:41.669Z,101287.08
2018-05-11T13:39:09.304Z,101287.13
2018-05-11T13:41:36.965Z,101273.77
2018-05-11T13:44:04.593Z,101274.84
2018-05-11T13:46:32.206Z,101270.33
2018-05-11T13:48:59.853Z,101264.44
2018-05-11T13:51:27.527Z,101262.42
2018-05-11T13:53:55.157Z,101264.75
2018-05-11T13:56:22.901Z,101260.27
2018-05-11T13:58:50.527Z,101258.22
2018-05-11T14:01:18.113Z,101260.34
2018-05-11T14:03:45.764Z,101256.66
2018-05-11T14:06:13.357Z,101257.34
2018-05-11T14:08:40.997Z,101250.14
2018-05-11T14:11:08.662Z,101255.12
2018-05-11T14:13:36.296Z,101262.60
2018-05-11T14:16:03.883Z,101262.66
2018-05-11T14:18:31.505Z,101253.38
2018-05-11T14:20:59.121Z,101252.88
2018-05-11T14:23:26.960Z,101246.23
2018-05-11T14:25:54.698Z,101247.28
2018-05-11T14:28:22.500Z,101243.79
2018-05-11T14:30:50.145Z,101242.86
2018-05-11T14:33:17.819Z,101245.00
2018-05-11T14:35:45.416Z,101238.33
2018-05-11T14:38:13.043Z,101232.38
2018-05-11T14:40:40.757Z,101236.49
2018-05-11T14:43:08.370Z,101234.27
2018-05-11T14:45:36.017Z,101234.91
2018-05-11T14:48:03.627Z,101231.02
2018-05-11T14:50:31.285Z,101227.97
2018-05-11T14:52:58.945Z,101229.25
2018-05-11T14:55:26.587Z,101230.40
2018-05-11T14:57:54.221Z,101224.27
2018-05-11T15:00:21.892Z,101216.95
2018-05-11T15:02:49.634Z,101211.22
2018-05-11T15:05:17.307Z,101210.93
2018-05-11T15:07:44.999Z,101200.37
2018-05-11T15:10:12.744Z,101199.00
2018-05-11T15:12:40.305Z,101195.48
2018-05-11T15:15:08.089Z,101195.41
2018-05-11T15:17:35.701Z,101190.59
2018-05-11T15:20:03.392Z,101194.67
2018-05-11T15:22:31.003Z,101193.42
2018-05-11T15:24:58.604Z,101187.83
2018-05-11T15:27:26.237Z,101195.81
2018-05-11T15:29:53.954Z,101199.58
2018-05-11T15:32:21.637Z,101192.61
2018-05-11T15:34:49.261Z,101189.89
2018-05-11T15:37:16.918Z,101185.81
2018-05-11T15:39:44.537Z,101180.02
2018-05-11T15:42:12.313Z,101179.06
2018-05-11T15:44:39.929Z,101175.17
2018-05-11T15:47:07.590Z,101171.77
2018-05-11T15:49:35.307Z,101166.02
2018-05-11T15:52:02.956Z,101174.44
2018-05-11T15:54:30.643Z,101165.39
2018-05-11T15:56:58.303Z,101165.10
2018-05-11T15:59:25.893Z,101163.78
2018-05-11T16:01:53.533Z,101166.97
2018-05-11T16:04:21.145Z,101173.67
2018-05-11T16:06:48.789Z,101170.09
2018-05-11T16:09:16.415Z,101169.21
2018-05-11T16:11:44.073Z,101170.59
2018-05-11T16:14:11.692Z,101164.39
2018-05-11T16:16:39.387Z,101172.73
2018-05-11T16:19:07.130Z,101163.08
2018-05-11T16:21:34.739Z,101155.49
2018-05-11T16:24:02.385Z,101151.95
2018-05-11T16:26:30.038Z,101150.20
2018-05-11T16:28:57.716Z,101152.48
2018-05-11T16:31:25.396Z,101150.28
2018-05-11T16:33:53.041Z,101149.38
2018-05-11T16:36:20.701Z,101152.56
2018-05-11T16:38:48.405Z,101151.66
2018-05-11T16:41:16.018Z,101149.88
2018-05-11T16:43:43.677Z,101146.38
2018-05-11T16:46:11.281Z,101149.87
2018-05-11T16:48:38.950Z,101149.45
2018-05-11T16:51:06.709Z,101147.24
2018-05-11T16:53:34.312Z,101141.14
2018-05-11T16:56:01.906Z,101139.80
2018-05-11T16:58:29.630Z,101141.13
2018-05-11T17:00:57.256Z,101136.72
2018-05-11T17:03:24.997Z,101137.16
2018-05-11T17:05:52.633Z,101142.43
2018-05-11T17:08:20.355Z,101138.89
2018-05-11T17:10:48.043Z,101138.91
2018-05-11T17:13:15.638Z,101135.37
2018-05-11T17:15:43.269Z,101138.02
2018-05-11T17:18:11.060Z,101138.04
2018-05-11T17:20:38.858Z,101132.33
2018-05-11T17:23:06.475Z,101130.50
2018-05-11T17:25:34.165Z,101133.62
2018-05-11T17:28:01.838Z,101130.55
2018-05-11T17:30:29.498Z,101129.25
2018-05-11T17:32:57.105Z,101134.98
2018-05-11T17:35:24.752Z,101130.98
2018-05-11T17:37:52.604Z,101133.66
2018-05-11T17:40:20.255Z,101130.53
2018-05-11T17:42:47.887Z,101120.80
2018-05-11T17:45:15.530Z,101131.40
2018-05-11T17:47:43.171Z,101127.05
2018-05-11T17:50:10.997Z,101132.36
2018-05-11T17:52:38.630Z,101131.05
2018-05-11T17:55:06.359Z,101135.01
2018-05-11T17:57:34.097Z,101131.94
2018-05-11T18:00:01.752Z,101131.05
2018-05-11T18:02:29.375Z,101135.91
2018-05-11T18:04:57.020Z,101136.34
2018-05-11T18:07:24.719Z,101136.31
2018-05-11T18:09:52.384Z,101131.45
2018-05-11T18:12:20.053Z,101134.55
2018-05-11T18:14:47.688Z,101134.98
2018-05-11T18:17:15.344Z,101131.44
2018-05-11T18:19:43.084Z,101123.11
2018-05-11T18:22:10.759Z,101132.34
2018-05-11T18:24:38.526Z,101128.37
2018-05-11T18:27:06.183Z,101124.41
2018-05-11T18:29:33.786Z,101122.20
2018-05-11T18:32:01.444Z,101127.06
2018-05-11T18:34:29.049Z,101118.66
2018-05-11T18:36:56.785Z,101119.12
2018-05-11T18:39:24.424Z,101117.77
2018-05-11T18:41:52.060Z,101118.17
2018-05-11T18:44:19.698Z,101116.84
2018-05-11T18:46:47.421Z,101121.67
2018-05-11T18:49:15.029Z,101119.45
2018-05-11T18:51:42.737Z,101117.68
2018-05-11T18:54:10.630Z,101117.20
2018-05-11T18:56:37.996Z,101122.91
2018-05-11T18:59:05.597Z,101132.99
2018-05-11T19:01:33.297Z,101129.03
2018-05-11T19:04:00.893Z,101132.09
2018-05-11T19:06:28.497Z,101129.38
2018-05-11T19:08:56.316Z,101133.28
2018-05-11T19:11:23.859Z,101128.81
2018-05-11T19:13:51.529Z,101134.09
2018-05-11T19:16:19.116Z,101132.31
2018-05-11T19:18:46.775Z,101138.48
2018-05-11T19:21:14.536Z,101138.94
2018-05-11T19:23:42.171Z,101139.42
2018-05-11T19:26:09.801Z,101145.66
2018-05-11T19:28:37.533Z,101145.19
2018-05-11T19:31:05.177Z,101143.84
2018-05-11T19:33:32.864Z,101153.03
2018-05-11T19:36:00.490Z,101149.91
2018-05-11T19:38:28.173Z,101157.38
2018-05-11T19:40:55.847Z,101152.98
2018-05-11T19:43:23.458Z,101156.14
2018-05-11T19:45:51.244Z,101158.83
2018-05-11T19:48:18.862Z,101158.74
2018-05-11T19:50:46.704Z,101158.23
2018-05-11T19:53:14.374Z,101162.44
2018-05-11T19:55:42.229Z,101162.03
2018-05-11T19:58:09.835Z,101171.73
2018-05-11T20:00:37.512Z,101166.95
2018-05-11T20:03:05.115Z,101169.17
2018-05-11T20:05:32.789Z,101173.91
2018-05-11T20:08:00.398Z,101180.92
2018-05-11T20:10:28.053Z,101180.02
2018-05-11T20:12:55.670Z,101176.75
2018-05-11T20:15:23.319Z,101178.13
2018-05-11T20:17:50.955Z,101186.83
2018-05-11T20:20:18.837Z,101182.44
2018-05-11T20:22:46.453Z,101182.90
2018-05-11T20:25:14.078Z,101182.47
2018-05-11T20:27:41.735Z,101174.17
2018-05-11T20:30:09.338Z,101183.09
2018-05-11T20:32:37.010Z,101182.61
2018-05-11T20:35:04.660Z,101186.41
2018-05-11T20:37:32.363Z,101188.27
2018-05-11T20:40:00.081Z,101186.05
2018-05-11T20:42:27.730Z,101183.50
2018-05-11T20:44:55.381Z,101185.77
2018-05-11T20:47:23.093Z,101184.73
2018-05-11T20:49:50.729Z,101186.95
2018-05-11T20:52:18.368Z,101187.94
2018-05-11T20:54:46.021Z,101196.37
2018-05-11T20:57:13.710Z,101187.66
2018-05-11T20:59:41.321Z,101196.93
2018-05-11T21:02:08.972Z,101194.68
2018-05-11T21:04:36.693Z,101190.67
2018-05-11T21:07:04.351Z,101191.81
2018-05-11T21:09:32.001Z,101188.64
2018-05-11T21:11:59.608Z,101185.62
2018-05-11T21:14:27.278Z,101181.66
2018-05-11T21:16:54.889Z,101179.33
2018-05-11T21:19:22.561Z,101175.66
2018-05-11T21:21:50.377Z,101179.54
2018-05-11T21:24:18.028Z,101184.27
2018-05-11T21:26:45.639Z,101186.91
2018-05-11T21:29:13.270Z,101185.66
2018-05-11T21:31:41.005Z,101179.11
2018-05-11T21:34:08.882Z,101188.28
2018-05-11T21:36:37.007Z,101189.64
2018-05-11T21:39:04.647Z,101194.45
2018-05-11T21:41:32.373Z,101200.17
2018-05-11T21:44:00.018Z,101199.72
2018-05-11T21:46:27.659Z,101193.89
2018-05-11T21:48:55.298Z,101199.25
2018-05-11T21:51:23.001Z,101194.62
2018-05-11T21:53:50.693Z,101196.10
2018-05-11T21:56:18.328Z,101196.53
2018-05-11T21:58:45.943Z,101197.56
2018-05-11T22:01:13.605Z,101195.13
2018-05-11T22:03:41.234Z,101194.92
2018-05-11T22:06:08.947Z,101200.52
2018-05-11T22:08:36.561Z,101196.20
2018-05-11T22:11:04.231Z,101193.45
2018-05-11T22:13:31.894Z,101201.11
2018-05-11T22:15:59.514Z,101200.91
2018-05-11T22:18:27.134Z,101195.15
2018-05-11T22:20:54.770Z,101200.41
2018-05-11T22:23:22.357Z,101202.13
2018-05-11T22:25:50.015Z,101206.13
2018-05-11T22:28:17.734Z,101197.56
2018-05-11T22:30:46.919Z,101206.62
2018-05-11T22:33:16.455Z,101199.07
2018-05-11T22:35:44.180Z,101196.18
2018-05-11T22:38:11.953Z,101197.30
2018-05-11T22:40:39.670Z,101192.33
2018-05-11T22:43:07.996Z,101198.20
2018-05-11T22:45:37.127Z,101189.81
2018-05-11T22:48:06.147Z,101192.23
2018-05-11T22:50:36.456Z,101197.78
2018-05-11T22:53:04.126Z,101190.83
2018-05-11T22:55:32.207Z,101188.91
2018-05-11T22:58:00.288Z,101185.59
2018-05-11T23:00:46.829Z,101186.77
2018-05-11T23:03:14.524Z,101192.49
2018-05-11T23:05:54.563Z,101195.69
2018-05-11T23:08:26.256Z,101198.52
2018-05-11T23:10:55.291Z,101198.52
2018-05-11T23:13:22.975Z,101199.44
2018-05-11T23:15:50.941Z,101197.21
2018-05-11T23:18:22.375Z,101198.00
2018-05-11T23:20:51.425Z,101191.00
2018-05-11T23:23:21.879Z,101196.16
2018-05-11T23:25:51.029Z,101204.47
2018-05-11T23:28:20.068Z,101200.58
2018-05-11T23:30:49.079Z,101209.02
2018-05-11T23:33:18.757Z,101200.31
2018-05-11T23:35:46.828Z,101203.37
2018-05-11T23:38:14.678Z,101202.19
2018-05-11T23:40:43.128Z,101205.69
2018-05-11T23:43:11.245Z,101198.25
2018-05-11T23:45:40.943Z,101197.77
2018-05-11T23:48:09.926Z,101192.96
2018-05-11T23:50:37.901Z,101188.06
2018-05-11T23:53:14.785Z,101195.41
2018-05-11T23:58:37.221Z,101190.82
